Airfield :
LOGIN :

Register | Disclaimer

   EN    FR    IT 

 










Legend :    VFR   Marginal VFR   IFR   Intensive IFR   Very Intensive IFR
Visi :
Ceiling :
>= 8 km
>= 3000ft
5 to 8 km
1000 to 3000 ft
1500m to 5 km
500 to 1000 ft
800 to 1500m
200 to 500 ft
< 800m
< 200 ft
Symbols :   Thunderstorms  Fog  Heavy snow  Heavy precipitations  Wind > 20 kt
SIGMETs :     Misc.  Thunderstorms  Icing  Turbulence  Mountain Waves  Volcanic Ashes







- Airport Elevation : 3 ft
- IATA code : DHR


EHKD - Den Helder De Kooy

CURRENT METAR :
  • 251455Z AUTO 32009KT 290V020 9999 FEW017 17/12 Q1026 BLU 32008KT 9999 FEW015

EXPIRED METARs :
  • 251425Z AUTO 31011KT 280V340 9999 FEW016 17/12 Q1026 BLU 32008KT 9999 FEW015
  • 251406Z AUTO 31010KT 270V340 9999 FEW016 17/12 Q1026 BLU 32008KT 9999 FEW015
  • 251357Z AUTO 31008KT 270V350 9999 SCT016 17/12 Q1026 WHT 32008KT 9999 FEW015
  • 251355Z AUTO 31007KT 270V050 9999 FEW016 17/12 Q1026 BLU 32008KT 9999 FEW015
  • 251344Z AUTO 31008KT 250V050 9999 FEW017 17/12 Q1026 BLU 32008KT 9999 FEW015
  • 251327Z AUTO 31008KT 250V030 9999 FEW015 17/12 Q1026 BLU 32008KT 9999 SCT015
  • 251325Z AUTO 32007KT 260V030 9999 SCT015 17/12 Q1026 WHT 32008KT 9999 SCT015
  • 251255Z AUTO 31007KT 280V050 9999 FEW014 17/12 Q1026 BLU 32008KT 9999 SCT015
  • 251234Z AUTO 31007KT 280V010 9999 FEW015 17/12 Q1026 BLU 32008KT 9999 SCT015
  • 251230Z AUTO 32008KT 280V020 9999 FEW013 SCT016 17/12 Q1026 WHT 32008KT 9999 SCT015
  • 251225Z AUTO 31008KT 260V020 9999 SCT013 17/12 Q1025 GRN 33008KT 9999 FEW014 TEMPO BKN015
  • 251205Z AUTO 31008KT 250V360 9999 FEW013 17/13 Q1025 BLU 33008KT 9999 FEW014 TEMPO BKN015

TAF TAF EHKD
Valid from the 25 at 13:00 until the 26 at 01:00 UTC


251205Z 2513/2601 33008KT 9999 SCT015
BECMG 2517/2519 FEW012
PROB30
TEMPO 2519/2601 SCT010
No reported NOTAMs for that airfield.



MET'MAP, your aeronautical weather chart ! - Copyright ORBIFLY December 2007 - Disclaimer

ORBIFLY MET'MAP TEAM :

Programming & Development : Alexandra Zaïnal
Concept & Development : Baudouin d'Aumeries
Co-Development & Prog : Marc-Olivier Méhu
Technical & hardware support : Manuel Goepfert

Contact : metmap@orbifly.com




SOURCES & CREDITS :

   NOAA